createdAt,value
2023-05-15T00:01:30.906Z,77.97
2023-05-15T00:03:57.506Z,77.75
2023-05-15T00:06:24.200Z,76.98
2023-05-15T00:12:31.405Z,79.26
2023-05-15T00:14:58.011Z,76.90
2023-05-15T00:17:25.885Z,76.69
2023-05-15T00:19:57.649Z,78.71
2023-05-15T00:22:24.432Z,77.27
2023-05-15T00:24:51.048Z,76.63
2023-05-15T00:27:17.726Z,76.20
2023-05-15T00:29:44.353Z,76.15
2023-05-15T00:32:10.930Z,75.86
2023-05-15T00:34:37.525Z,76.64
2023-05-15T00:37:04.228Z,75.81
2023-05-15T00:39:30.825Z,76.89
2023-05-15T00:41:59.574Z,75.66
2023-05-15T00:44:29.885Z,76.20
2023-05-15T00:46:58.117Z,76.34
2023-05-15T00:49:27.620Z,76.41
2023-05-15T00:51:54.290Z,75.93
2023-05-15T00:54:20.979Z,76.44
2023-05-15T00:56:48.501Z,76.54
2023-05-15T00:59:16.156Z,76.17
2023-05-15T01:01:45.270Z,77.03
2023-05-15T01:04:12.149Z,77.54
2023-05-15T01:06:38.784Z,77.74
2023-05-15T01:09:08.367Z,77.22
2023-05-15T01:11:38.192Z,77.54
2023-05-15T01:14:07.058Z,78.11
2023-05-15T01:16:34.447Z,78.20
2023-05-15T01:19:01.134Z,77.91
2023-05-15T01:21:37.465Z,77.34
2023-05-15T01:27:44.630Z,79.01
2023-05-15T01:30:18.710Z,76.97
2023-05-15T01:33:05.489Z,76.43
2023-05-15T01:35:49.443Z,76.28
2023-05-15T01:38:22.036Z,75.65
2023-05-15T01:40:52.764Z,76.05
2023-05-15T01:43:24.395Z,76.14
2023-05-15T01:45:51.113Z,77.50
2023-05-15T01:48:19.413Z,77.02
2023-05-15T01:50:47.400Z,77.09
2023-05-15T01:53:15.209Z,77.30
2023-05-15T01:55:42.630Z,78.65
2023-05-15T01:58:10.159Z,78.22
2023-05-15T02:00:37.883Z,77.92
2023-05-15T02:03:07.058Z,77.52
2023-05-15T02:05:35.378Z,78.90
2023-05-15T02:08:04.656Z,77.58
2023-05-15T02:10:33.020Z,78.62
2023-05-15T02:13:00.958Z,78.07
2023-05-15T02:15:29.689Z,78.81
2023-05-15T02:17:56.818Z,79.01
2023-05-15T02:20:23.566Z,79.17
2023-05-15T02:22:50.183Z,78.76
2023-05-15T02:25:16.895Z,79.51
2023-05-15T02:27:51.446Z,77.58
2023-05-15T02:30:48.547Z,77.59
2023-05-15T02:33:38.444Z,78.07
2023-05-15T02:36:07.987Z,78.99
2023-05-15T02:38:55.607Z,81.09
2023-05-15T02:41:23.623Z,80.49
2023-05-15T02:43:52.277Z,79.17
2023-05-15T02:46:22.469Z,77.76
2023-05-15T02:48:50.644Z,78.17
2023-05-15T02:51:17.418Z,78.65
2023-05-15T02:53:44.359Z,78.46
2023-05-15T02:56:10.953Z,77.26
2023-05-15T02:58:39.224Z,76.57
2023-05-15T03:01:06.317Z,78.62
2023-05-15T03:03:33.181Z,78.12
2023-05-15T03:06:02.860Z,79.77
2023-05-15T03:08:29.521Z,80.57
2023-05-15T03:10:56.199Z,79.50
2023-05-15T03:13:22.914Z,79.81
2023-05-15T03:15:49.559Z,80.58
2023-05-15T03:18:18.996Z,80.01
2023-05-15T03:20:48.402Z,78.76
2023-05-15T03:23:15.049Z,78.39
2023-05-15T03:25:41.583Z,78.63
2023-05-15T03:28:08.361Z,79.14
2023-05-15T03:30:35.045Z,78.35
2023-05-15T03:33:04.116Z,79.22
2023-05-15T03:35:32.518Z,78.63
2023-05-15T03:37:59.306Z,78.26
2023-05-15T03:40:26.082Z,79.11
2023-05-15T03:42:53.609Z,79.05
2023-05-15T03:45:21.249Z,79.38
2023-05-15T03:47:48.585Z,78.67
2023-05-15T03:50:16.333Z,78.01
2023-05-15T03:52:43.209Z,77.35
2023-05-15T03:55:10.002Z,78.87
2023-05-15T03:57:36.711Z,79.18
2023-05-15T04:00:09.743Z,79.25
2023-05-15T04:02:37.204Z,78.51
2023-05-15T04:05:05.444Z,77.55
2023-05-15T04:07:34.453Z,78.18
2023-05-15T04:10:02.022Z,78.31
2023-05-15T04:12:34.038Z,77.65
2023-05-15T04:15:21.701Z,77.72
2023-05-15T04:17:50.711Z,78.33
2023-05-15T04:20:19.594Z,77.92
2023-05-15T04:22:46.545Z,78.00
2023-05-15T04:25:14.777Z,77.43
2023-05-15T04:27:42.736Z,77.65
2023-05-15T04:30:10.643Z,77.67
2023-05-15T04:32:38.278Z,76.90
2023-05-15T04:35:06.391Z,80.71
2023-05-15T04:37:33.030Z,78.04
2023-05-15T04:39:59.959Z,83.31
2023-05-15T04:42:26.869Z,78.98
2023-05-15T04:44:53.796Z,78.59
2023-05-15T04:47:20.736Z,76.69
2023-05-15T04:49:48.191Z,79.73
2023-05-15T04:52:14.752Z,78.20
2023-05-15T04:54:42.208Z,77.68
2023-05-15T04:57:09.359Z,76.65
2023-05-15T04:59:36.388Z,76.89
2023-05-15T05:02:03.471Z,78.50
2023-05-15T05:04:30.035Z,79.10
2023-05-15T05:06:56.853Z,80.79
2023-05-15T05:09:23.605Z,80.47
2023-05-15T05:11:50.335Z,80.21
2023-05-15T05:14:17.029Z,79.12
2023-05-15T05:16:46.600Z,79.09
2023-05-15T05:19:13.338Z,80.82
2023-05-15T05:21:39.989Z,78.10
2023-05-15T05:24:06.687Z,77.22
2023-05-15T05:26:33.359Z,77.96
2023-05-15T05:29:00.010Z,77.91
2023-05-15T05:31:26.700Z,77.91
2023-05-15T05:33:53.351Z,76.96
2023-05-15T05:36:20.028Z,77.47
2023-05-15T05:38:46.814Z,77.52
2023-05-15T05:41:13.515Z,75.73
2023-05-15T05:43:40.096Z,77.95
2023-05-15T05:46:06.680Z,76.75
2023-05-15T05:48:33.362Z,78.84
2023-05-15T05:50:59.978Z,78.98
2023-05-15T05:53:26.642Z,79.74
2023-05-15T05:55:53.972Z,77.65
2023-05-15T05:58:25.486Z,76.98
2023-05-15T06:00:53.307Z,75.85
2023-05-15T06:03:21.053Z,75.86
2023-05-15T06:05:48.709Z,77.40
2023-05-15T06:08:15.495Z,77.09
2023-05-15T06:10:42.483Z,76.23
2023-05-15T06:13:09.248Z,77.86
2023-05-15T06:15:35.923Z,78.17
2023-05-15T06:18:02.597Z,81.52
2023-05-15T06:20:29.385Z,80.63
2023-05-15T06:22:56.185Z,78.43
2023-05-15T06:25:22.911Z,82.01
2023-05-15T06:27:49.625Z,80.26
2023-05-15T06:30:16.347Z,77.56
2023-05-15T06:32:42.996Z,78.38
2023-05-15T06:35:10.449Z,78.06
2023-05-15T06:37:37.730Z,75.39
2023-05-15T06:40:06.079Z,76.13
2023-05-15T06:42:33.256Z,75.45
2023-05-15T06:45:00.291Z,75.37
2023-05-15T06:47:27.036Z,74.90
2023-05-15T06:49:55.494Z,74.60
2023-05-15T06:52:22.142Z,76.15
2023-05-15T06:54:48.769Z,78.11
2023-05-15T06:57:15.826Z,77.50
2023-05-15T06:59:42.498Z,78.87
2023-05-15T07:02:09.331Z,75.56
2023-05-15T07:04:36.227Z,74.18
2023-05-15T07:07:02.943Z,74.23
2023-05-15T07:09:29.597Z,73.12
2023-05-15T07:11:56.166Z,74.88
2023-05-15T07:14:24.588Z,73.44
2023-05-15T07:16:51.280Z,75.89
2023-05-15T07:19:19.452Z,74.90
2023-05-15T07:21:46.053Z,78.76
2023-05-15T07:24:12.664Z,77.13
2023-05-15T07:26:46.930Z,74.88
2023-05-15T07:29:23.989Z,73.23
2023-05-15T07:31:50.764Z,74.12
2023-05-15T07:34:17.503Z,74.89
2023-05-15T07:36:44.168Z,74.98
2023-05-15T07:39:10.867Z,74.20
2023-05-15T07:41:37.531Z,73.07
2023-05-15T07:44:04.256Z,75.97
2023-05-15T07:46:31.007Z,74.85
2023-05-15T07:48:57.735Z,73.12
2023-05-15T07:51:24.388Z,73.03
2023-05-15T07:53:51.010Z,74.67
2023-05-15T07:56:17.753Z,75.93
2023-05-15T07:58:44.365Z,75.22
2023-05-15T08:01:11.378Z,77.90
2023-05-15T08:03:38.123Z,75.99
2023-05-15T08:06:05.159Z,72.88
2023-05-15T08:08:31.798Z,73.70
2023-05-15T08:10:58.414Z,77.54
2023-05-15T08:13:25.088Z,76.22
2023-05-15T08:15:51.756Z,72.37
2023-05-15T08:18:18.457Z,73.10
2023-05-15T08:20:45.026Z,74.08
2023-05-15T08:23:14.300Z,76.26
2023-05-15T08:25:40.942Z,76.30
2023-05-15T08:28:07.557Z,75.01
2023-05-15T08:30:34.255Z,73.95
2023-05-15T08:33:00.879Z,73.33
2023-05-15T08:35:27.693Z,72.37
2023-05-15T08:37:54.463Z,74.99
2023-05-15T08:40:34.416Z,72.64
2023-05-15T08:43:15.070Z,76.07
2023-05-15T08:45:42.237Z,74.15
2023-05-15T08:48:13.890Z,74.51
2023-05-15T08:50:41.644Z,74.19
2023-05-15T08:53:08.557Z,71.39
2023-05-15T08:55:35.396Z,71.91
2023-05-15T08:58:02.915Z,70.79
2023-05-15T09:00:30.838Z,72.15
2023-05-15T09:03:01.342Z,73.32
2023-05-15T09:05:29.789Z,74.07
2023-05-15T09:07:59.137Z,74.61
2023-05-15T09:10:25.826Z,76.62
2023-05-15T09:12:52.529Z,76.23
2023-05-15T09:15:25.534Z,76.10
2023-05-15T09:17:52.735Z,73.99
2023-05-15T09:20:25.441Z,74.23
2023-05-15T09:22:52.130Z,76.00
2023-05-15T09:25:38.322Z,74.11
2023-05-15T09:28:06.468Z,74.72
2023-05-15T09:30:34.858Z,74.53
2023-05-15T09:33:05.623Z,73.89
2023-05-15T09:35:35.431Z,72.15
2023-05-15T09:38:04.706Z,73.36
2023-05-15T09:40:32.608Z,72.00
2023-05-15T09:42:59.799Z,72.38
2023-05-15T09:45:29.917Z,72.06
2023-05-15T09:47:57.644Z,72.56
2023-05-15T09:50:36.868Z,71.61
2023-05-15T09:53:04.814Z,72.39
2023-05-15T09:55:36.292Z,69.40
2023-05-15T09:58:14.519Z,69.13
2023-05-15T10:00:48.084Z,71.06
2023-05-15T10:03:17.405Z,71.24
2023-05-15T10:05:44.447Z,68.62
2023-05-15T10:08:11.885Z,69.04
2023-05-15T10:10:38.810Z,68.29
2023-05-15T10:13:08.171Z,67.44
2023-05-15T10:15:35.737Z,69.06
2023-05-15T10:18:05.053Z,71.00
2023-05-15T10:20:35.550Z,71.33
2023-05-15T10:23:04.666Z,69.99
2023-05-15T10:25:46.319Z,66.82
2023-05-15T10:28:14.246Z,67.69
2023-05-15T10:30:43.039Z,69.79
2023-05-15T10:33:11.562Z,68.98
2023-05-15T10:35:42.615Z,68.62
2023-05-15T10:38:11.157Z,68.94
2023-05-15T10:40:39.266Z,69.87
2023-05-15T10:43:06.406Z,70.11
2023-05-15T10:45:35.461Z,69.18
2023-05-15T10:48:05.693Z,68.12
2023-05-15T10:50:32.663Z,68.38
2023-05-15T10:53:00.178Z,68.06
2023-05-15T10:55:26.946Z,70.27
2023-05-15T10:57:55.008Z,70.79
2023-05-15T11:00:31.277Z,69.97
2023-05-15T11:02:58.884Z,70.48
2023-05-15T11:05:26.194Z,70.06
2023-05-15T11:08:25.975Z,69.28
2023-05-15T11:10:53.701Z,70.58
2023-05-15T11:13:20.806Z,68.75
2023-05-15T11:15:48.355Z,67.95
2023-05-15T11:18:15.977Z,70.44
2023-05-15T11:20:54.657Z,69.13
2023-05-15T11:23:22.268Z,69.88
2023-05-15T11:25:58.806Z,67.84
2023-05-15T11:28:29.357Z,70.09
2023-05-15T11:31:06.871Z,69.72
2023-05-15T11:33:33.838Z,71.90
2023-05-15T11:36:01.822Z,70.54
2023-05-15T11:38:28.529Z,68.80
2023-05-15T11:40:58.746Z,68.22
2023-05-15T11:43:29.520Z,66.03
2023-05-15T11:46:07.302Z,65.16
2023-05-15T11:48:39.698Z,66.16
2023-05-15T11:51:17.396Z,66.13
2023-05-15T11:53:44.310Z,70.34
2023-05-15T11:56:19.437Z,66.82
2023-05-15T11:58:49.569Z,65.83
2023-05-15T12:01:16.538Z,67.39
2023-05-15T12:03:43.476Z,65.37
2023-05-15T12:06:10.848Z,64.91
2023-05-15T12:08:38.380Z,63.64
2023-05-15T12:11:06.063Z,64.05
2023-05-15T12:13:33.793Z,64.32
2023-05-15T12:16:02.521Z,62.65
2023-05-15T12:18:33.404Z,65.27
2023-05-15T12:21:00.748Z,63.98
2023-05-15T12:23:28.593Z,63.08
2023-05-15T12:26:01.339Z,64.82
2023-05-15T12:28:29.830Z,65.94
2023-05-15T12:30:57.150Z,66.91
2023-05-15T12:33:25.023Z,66.52
2023-05-15T12:35:58.904Z,66.38
2023-05-15T12:38:27.804Z,66.86
2023-05-15T12:40:54.821Z,66.86
2023-05-15T12:43:25.109Z,62.25
2023-05-15T12:45:56.073Z,63.00
2023-05-15T12:48:23.210Z,62.94
2023-05-15T12:50:52.901Z,66.60
2023-05-15T12:53:21.584Z,68.32
2023-05-15T12:55:48.960Z,65.84
2023-05-15T12:58:18.859Z,63.56
2023-05-15T13:00:50.335Z,62.33
2023-05-15T13:03:21.559Z,60.91
2023-05-15T13:05:48.454Z,62.22
2023-05-15T13:08:17.531Z,60.22
2023-05-15T13:10:45.412Z,59.79
2023-05-15T13:13:12.216Z,59.98
2023-05-15T13:15:42.229Z,59.41
2023-05-15T13:18:13.725Z,58.10
2023-05-15T13:20:43.345Z,58.07
2023-05-15T13:23:14.151Z,59.95
2023-05-15T13:25:40.909Z,59.82
2023-05-15T13:28:08.594Z,60.31
2023-05-15T13:30:35.823Z,60.37
2023-05-15T13:33:03.557Z,56.93
2023-05-15T13:35:30.438Z,58.05
2023-05-15T13:37:57.399Z,58.23
2023-05-15T13:40:24.606Z,58.27
2023-05-15T13:42:51.425Z,57.68
2023-05-15T13:45:18.228Z,58.02
2023-05-15T13:47:45.188Z,56.75
2023-05-15T13:50:15.651Z,58.64
2023-05-15T13:52:44.430Z,57.11
2023-05-15T13:55:11.433Z,57.45
2023-05-15T13:57:39.589Z,56.65
2023-05-15T14:00:07.926Z,57.05
2023-05-15T14:02:34.631Z,55.50
2023-05-15T14:05:01.827Z,56.93
2023-05-15T14:07:31.858Z,56.36
2023-05-15T14:09:58.555Z,57.45
2023-05-15T14:12:25.473Z,57.26
2023-05-15T14:14:52.165Z,57.83
2023-05-15T14:17:18.764Z,55.98
2023-05-15T14:19:45.589Z,56.04
2023-05-15T14:22:12.272Z,55.93
2023-05-15T14:24:38.947Z,56.93
2023-05-15T14:27:06.044Z,55.50
2023-05-15T14:29:32.722Z,57.43
2023-05-15T14:31:59.374Z,56.69
2023-05-15T14:34:26.130Z,59.09
2023-05-15T14:36:52.757Z,58.93
2023-05-15T14:39:19.552Z,57.66
2023-05-15T14:41:46.280Z,57.79
2023-05-15T14:44:12.988Z,59.43
2023-05-15T14:46:42.593Z,57.30
2023-05-15T14:49:09.439Z,58.05
2023-05-15T14:51:36.094Z,56.98
2023-05-15T14:54:04.399Z,57.56
2023-05-15T14:56:31.654Z,57.43
2023-05-15T14:58:58.277Z,58.09
2023-05-15T15:01:25.001Z,60.84
2023-05-15T15:03:51.874Z,61.13
2023-05-15T15:06:18.719Z,60.53
2023-05-15T15:08:45.276Z,58.07
2023-05-15T15:11:12.034Z,58.27
2023-05-15T15:13:38.650Z,57.74
2023-05-15T15:16:05.400Z,57.94
2023-05-15T15:18:32.106Z,57.76
2023-05-15T15:20:58.807Z,56.45
2023-05-15T15:23:25.486Z,56.62
2023-05-15T15:25:52.134Z,56.91
2023-05-15T15:28:18.756Z,56.34
2023-05-15T15:30:45.555Z,57.32
2023-05-15T15:33:12.179Z,57.87
2023-05-15T15:35:38.901Z,58.01
2023-05-15T15:38:05.699Z,58.03
2023-05-15T15:40:32.807Z,58.79
2023-05-15T15:43:01.551Z,59.51
2023-05-15T15:45:28.272Z,58.74
2023-05-15T15:47:55.059Z,59.47
2023-05-15T15:50:21.722Z,58.85
2023-05-15T15:52:48.424Z,60.11
2023-05-15T15:55:15.059Z,60.82
2023-05-15T15:57:41.687Z,61.96
2023-05-15T16:00:09.586Z,59.33
2023-05-15T16:02:36.816Z,61.72
2023-05-15T16:05:04.010Z,61.70
2023-05-15T16:07:30.774Z,59.82
2023-05-15T16:10:10.882Z,59.46
2023-05-15T16:12:40.847Z,59.31
2023-05-15T16:15:21.666Z,60.63
2023-05-15T16:17:54.340Z,61.38
2023-05-15T16:20:21.962Z,58.91
2023-05-15T16:22:48.628Z,60.54
2023-05-15T16:25:15.287Z,59.30
2023-05-15T16:27:41.895Z,60.01
2023-05-15T16:30:09.440Z,60.15
2023-05-15T16:32:36.301Z,62.36
2023-05-15T16:35:03.444Z,62.06
2023-05-15T16:37:30.059Z,60.54
2023-05-15T16:39:57.867Z,60.67
2023-05-15T16:42:24.524Z,60.21
2023-05-15T16:44:51.407Z,60.40
2023-05-15T16:47:18.016Z,62.16
2023-05-15T16:49:45.794Z,64.52
2023-05-15T16:52:13.557Z,63.90
2023-05-15T16:54:41.861Z,64.31
2023-05-15T16:57:08.481Z,64.74
2023-05-15T16:59:35.292Z,64.86
2023-05-15T17:02:02.000Z,63.73
2023-05-15T17:04:31.457Z,64.45
2023-05-15T17:06:59.466Z,63.30
2023-05-15T17:09:26.334Z,63.68
2023-05-15T17:11:53.009Z,61.86
2023-05-15T17:14:19.748Z,63.73
2023-05-15T17:16:46.400Z,64.03
2023-05-15T17:19:13.282Z,64.96
2023-05-15T17:21:39.992Z,64.70
2023-05-15T17:24:06.846Z,64.49
2023-05-15T17:26:33.439Z,66.05
2023-05-15T17:29:00.040Z,65.67
2023-05-15T17:31:28.881Z,64.45
2023-05-15T17:33:55.637Z,62.80
2023-05-15T17:36:22.314Z,62.89
2023-05-15T17:38:48.918Z,64.35
2023-05-15T17:41:15.610Z,63.98
2023-05-15T17:43:42.191Z,64.71
2023-05-15T17:46:09.022Z,64.28
2023-05-15T17:48:36.077Z,62.66
2023-05-15T17:51:02.819Z,61.77
2023-05-15T17:53:29.502Z,62.90
2023-05-15T17:55:56.381Z,65.24
2023-05-15T17:58:23.024Z,64.06
2023-05-15T18:00:51.664Z,62.47
2023-05-15T18:03:18.362Z,62.80
2023-05-15T18:05:46.769Z,66.46
2023-05-15T18:08:13.923Z,66.34
2023-05-15T18:10:40.570Z,66.03
2023-05-15T18:13:07.197Z,66.56
2023-05-15T18:15:35.262Z,67.70
2023-05-15T18:18:02.609Z,67.07
2023-05-15T18:20:29.625Z,68.66
2023-05-15T18:22:56.315Z,66.76
2023-05-15T18:25:23.076Z,64.91
2023-05-15T18:27:49.755Z,64.11
2023-05-15T18:30:16.552Z,63.66
2023-05-15T18:32:43.205Z,63.71
2023-05-15T18:35:12.013Z,63.99
2023-05-15T18:37:41.361Z,66.21
2023-05-15T18:40:08.765Z,64.93
2023-05-15T18:42:35.539Z,65.12
2023-05-15T18:45:02.345Z,65.65
2023-05-15T18:47:29.094Z,65.86
2023-05-15T18:49:55.974Z,66.35
2023-05-15T18:52:22.895Z,65.53
2023-05-15T18:54:49.566Z,68.43
2023-05-15T18:57:16.209Z,68.07
2023-05-15T18:59:42.853Z,67.36
2023-05-15T19:02:12.250Z,67.03
2023-05-15T19:04:38.862Z,67.81
2023-05-15T19:07:06.369Z,66.48
2023-05-15T19:09:33.018Z,65.70
2023-05-15T19:12:00.276Z,65.17
2023-05-15T19:14:26.936Z,64.74
2023-05-15T19:16:54.102Z,64.30
2023-05-15T19:19:23.806Z,64.02
2023-05-15T19:21:51.934Z,64.09
2023-05-15T19:24:19.064Z,64.58
2023-05-15T19:26:45.857Z,64.79
2023-05-15T19:29:12.567Z,64.78
2023-05-15T19:31:39.473Z,64.58
2023-05-15T19:34:06.275Z,67.45
2023-05-15T19:36:32.892Z,66.46
2023-05-15T19:39:04.333Z,66.72
2023-05-15T19:41:30.957Z,68.78
2023-05-15T19:43:57.585Z,72.86
2023-05-15T19:46:24.372Z,72.56
2023-05-15T19:48:51.005Z,70.45
2023-05-15T19:51:18.853Z,67.88
2023-05-15T19:53:45.682Z,67.81
2023-05-15T19:56:13.843Z,69.00
2023-05-15T19:58:40.511Z,67.81
2023-05-15T20:01:07.745Z,68.64
2023-05-15T20:03:34.611Z,68.84
2023-05-15T20:06:02.590Z,69.76
2023-05-15T20:08:29.581Z,69.01
2023-05-15T20:10:57.037Z,69.79
2023-05-15T20:13:24.235Z,69.38
2023-05-15T20:15:57.072Z,67.93
2023-05-15T20:18:25.170Z,69.50
2023-05-15T20:20:54.506Z,68.61
2023-05-15T20:23:22.085Z,69.02
2023-05-15T20:25:50.769Z,68.49
2023-05-15T20:28:17.990Z,68.63
2023-05-15T20:30:47.343Z,68.37
2023-05-15T20:33:14.602Z,68.03
2023-05-15T20:35:42.769Z,67.78
2023-05-15T20:38:10.517Z,67.94
2023-05-15T20:40:37.510Z,67.85
2023-05-15T20:43:04.679Z,67.60
2023-05-15T20:45:34.174Z,68.40
2023-05-15T20:48:01.248Z,68.93
2023-05-15T20:50:28.419Z,69.75
2023-05-15T20:52:55.760Z,69.84
2023-05-15T20:55:22.710Z,70.89
2023-05-15T20:57:50.368Z,70.90
2023-05-15T21:00:18.233Z,70.24
2023-05-15T21:02:46.581Z,69.83
2023-05-15T21:05:13.805Z,69.53
2023-05-15T21:07:40.853Z,69.08
2023-05-15T21:10:07.941Z,68.81
2023-05-15T21:12:34.613Z,69.86
2023-05-15T21:15:02.164Z,71.60
2023-05-15T21:17:29.014Z,72.38
2023-05-15T21:19:57.726Z,71.83
2023-05-15T21:22:24.931Z,71.46
2023-05-15T21:24:51.827Z,73.15
2023-05-15T21:27:18.651Z,73.02
2023-05-15T21:29:45.389Z,74.48
2023-05-15T21:32:12.023Z,72.80
2023-05-15T21:34:39.788Z,72.84
2023-05-15T21:37:06.448Z,73.19
2023-05-15T21:39:33.156Z,72.90
2023-05-15T21:41:59.790Z,71.61
2023-05-15T21:44:26.415Z,70.61
2023-05-15T21:46:53.368Z,69.48
2023-05-15T21:49:20.005Z,68.89
2023-05-15T21:51:46.809Z,69.08
2023-05-15T21:54:13.514Z,69.51
2023-05-15T21:56:41.173Z,69.07
2023-05-15T21:59:08.216Z,69.26
2023-05-15T22:01:36.284Z,68.42
2023-05-15T22:04:03.332Z,69.55
2023-05-15T22:06:29.957Z,70.69
2023-05-15T22:08:57.558Z,69.58
2023-05-15T22:11:25.560Z,70.66
2023-05-15T22:13:52.175Z,70.45
2023-05-15T22:16:19.410Z,69.24
2023-05-15T22:18:47.733Z,68.99
2023-05-15T22:21:15.226Z,69.60
2023-05-15T22:23:41.892Z,70.71
2023-05-15T22:26:08.458Z,71.98
2023-05-15T22:28:35.111Z,70.41
2023-05-15T22:31:01.685Z,69.41
2023-05-15T22:33:28.347Z,68.79
2023-05-15T22:35:55.049Z,67.39
2023-05-15T22:38:21.986Z,66.42
2023-05-15T22:40:52.497Z,67.21
2023-05-15T22:43:19.517Z,69.34
2023-05-15T22:45:46.231Z,69.40
2023-05-15T22:48:12.905Z,72.16
2023-05-15T22:50:39.636Z,71.29
2023-05-15T22:53:06.307Z,70.34
2023-05-15T22:55:33.014Z,70.31
2023-05-15T22:57:59.631Z,69.54
2023-05-15T23:00:26.474Z,69.09
2023-05-15T23:02:55.373Z,68.95
2023-05-15T23:05:22.495Z,68.66
2023-05-15T23:07:49.110Z,69.05
2023-05-15T23:10:15.788Z,68.80
2023-05-15T23:12:42.531Z,69.79
2023-05-15T23:15:12.213Z,69.94
2023-05-15T23:17:39.245Z,69.93
2023-05-15T23:20:13.563Z,69.92
2023-05-15T23:22:40.488Z,69.26
2023-05-15T23:25:07.526Z,68.62
2023-05-15T23:27:34.285Z,68.53
2023-05-15T23:30:01.839Z,67.94
2023-05-15T23:32:28.557Z,67.84
2023-05-15T23:34:55.658Z,67.62
2023-05-15T23:37:22.465Z,68.17
2023-05-15T23:39:49.154Z,68.36
2023-05-15T23:42:16.012Z,67.89
2023-05-15T23:44:42.714Z,69.22
2023-05-15T23:47:09.401Z,69.15
2023-05-15T23:49:36.302Z,69.97
2023-05-15T23:52:02.992Z,70.37
2023-05-15T23:54:29.669Z,69.48
2023-05-15T23:56:56.319Z,69.64
2023-05-15T23:59:23.044Z,69.44
